Time;durP1;ratioP1;P1;durP2;ratioP2;P2;SDS_P1;SDS_P2;PMS_P1;PMS_P2;Temp;Humidity;BMP_temperature;BMP_pressure;BME280_temperature;BME280_humidity;BME280_pressure;Samples;Min_cycle;Max_cycle;Signal;HPM_P1;HPM_P2
2022/10/09 00:01:37;;;;;;;12.35;6.93;;;14.00;99.90;;;13.42;74.69;102250.63;5035281;28;20041;-70
2022/10/09 00:04:05;;;;;;;14.70;6.65;;;13.70;99.90;;;14.23;75.34;102384.94;5050991;28;20140;-69
2022/10/09 00:06:36;;;;;;;18.83;7.32;;;13.70;99.90;;;14.36;75.22;102402.81;5035156;28;20033;-69
2022/10/09 00:09:08;;;;;;;13.27;6.53;;;13.90;99.90;;;14.42;74.93;102397.50;5034156;28;20100;-69
2022/10/09 00:11:37;;;;;;;15.27;6.87;;;14.00;99.90;;;14.44;74.88;102401.94;5035110;28;20091;-69
2022/10/09 00:14:05;;;;;;;17.27;7.22;;;14.00;99.90;;;14.39;74.86;102385.06;5035269;28;20116;-69
2022/10/09 00:16:34;;;;;;;16.33;6.82;;;14.00;99.90;;;14.48;74.99;102383.34;5034923;28;20045;-69
2022/10/09 00:19:02;;;;;;;14.95;6.43;;;14.00;99.90;;;14.44;75.03;102390.41;5034896;28;20044;-69
2022/10/09 00:21:33;;;;;;;11.15;6.38;;;14.00;99.90;;;14.28;74.99;102367.28;5050482;28;20072;-69
2022/10/09 00:24:04;;;;;;;12.32;5.65;;;13.90;99.90;;;14.42;75.11;102392.16;5035001;28;20502;-69
2022/10/09 00:26:34;;;;;;;12.65;5.78;;;14.00;99.90;;;14.34;75.31;102394.81;5034475;28;20562;-69
2022/10/09 00:29:06;;;;;;;13.48;6.13;;;13.90;99.90;;;14.35;74.96;102390.38;5034725;28;20037;-69
2022/10/09 00:31:34;;;;;;;12.27;6.07;;;14.00;99.90;;;14.36;74.61;102381.53;5033749;28;20464;-69
2022/10/09 00:34:03;;;;;;;18.83;6.82;;;13.90;99.90;;;14.32;75.17;102382.38;5035124;28;20041;-69
2022/10/09 00:36:32;;;;;;;18.92;7.15;;;13.90;99.90;;;14.13;75.79;102377.81;5034510;28;20065;-69
2022/10/09 00:39:00;;;;;;;15.27;7.05;;;13.70;99.90;;;13.98;76.06;102367.97;5033499;28;20041;-69
2022/10/09 00:41:33;;;;;;;16.50;6.45;;;13.60;99.90;;;13.78;76.24;102342.16;5033538;28;20046;-69
2022/10/09 00:44:03;;;;;;;14.05;6.53;;;13.50;99.90;;;13.84;76.74;102364.31;5034487;28;20038;-69
2022/10/09 00:46:35;;;;;;;14.18;6.68;;;13.40;99.90;;;13.72;77.32;102374.91;5034334;28;20103;-69
2022/10/09 00:49:26;;;;;;;16.10;7.10;;;13.30;99.90;;;13.81;77.37;102387.38;5034313;28;20052;-70
2022/10/09 00:51:58;;;;;;;17.25;7.25;;;13.30;99.90;;;13.89;77.40;102383.00;5034511;28;20442;-69
2022/10/09 00:54:31;;;;;;;19.02;7.40;;;13.40;99.90;;;13.72;77.19;102350.09;5033403;28;20049;-69
2022/10/09 00:57:02;;;;;;;17.73;7.20;;;13.50;99.90;;;13.91;77.01;102389.22;5034194;28;20069;-69
2022/10/09 00:59:31;;;;;;;21.77;7.60;;;13.50;99.90;;;13.60;76.66;102350.88;5033602;28;20084;-69
2022/10/09 01:01:59;;;;;;;12.45;6.25;;;13.50;99.90;;;13.81;76.55;102387.38;5034392;28;20135;-69
2022/10/09 01:04:28;;;;;;;15.95;7.25;;;13.40;99.90;;;13.32;76.16;102295.72;5033111;28;20076;-69
2022/10/09 01:07:09;;;;;;;12.63;7.03;;;13.40;99.90;;;13.79;75.92;102374.06;5033972;28;20407;-70
2022/10/09 01:09:44;;;;;;;15.02;6.78;;;13.40;99.90;;;13.80;75.86;102364.31;5034086;28;20154;-68
2022/10/09 01:12:23;;;;;;;17.02;7.47;;;13.40;99.90;;;13.83;76.17;102385.59;5032903;28;20100;-69
2022/10/09 01:15:02;;;;;;;11.48;6.47;;;13.40;99.90;;;13.51;76.26;102322.47;5033861;28;20470;-69
2022/10/09 01:17:40;;;;;;;17.95;6.90;;;13.30;99.90;;;13.56;76.44;102335.78;5033852;28;20045;-69
2022/10/09 01:20:37;;;;;;;15.40;6.68;;;13.30;99.90;;;13.61;76.77;102370.41;5034052;28;20084;-69
2022/10/09 01:23:40;;;;;;;16.60;7.60;;;13.20;99.90;;;13.24;77.38;102340.00;5033946;28;20072;-69
2022/10/09 01:26:20;;;;;;;17.13;7.18;;;13.00;99.90;;;13.28;77.99;102363.91;5033311;28;20137;-69
2022/10/09 01:28:55;;;;;;;15.60;6.60;;;12.80;99.90;;;12.93;78.41;102306.03;5033882;28;20144;-69
2022/10/09 01:31:29;;;;;;;15.88;7.00;;;12.70;99.90;;;13.26;78.40;102352.38;5033948;28;20383;-69
2022/10/09 01:33:59;;;;;;;14.80;7.13;;;12.80;99.90;;;13.24;78.47;102350.63;5033818;28;20048;-69
2022/10/09 01:36:29;;;;;;;14.73;6.82;;;12.70;99.90;;;13.18;79.01;102355.88;5033284;28;20047;-69
2022/10/09 01:39:01;;;;;;;15.85;6.95;;;12.70;99.90;;;13.04;79.24;102361.06;5033636;28;20046;-69
2022/10/09 01:41:31;;;;;;;12.85;6.45;;;12.60;99.90;;;13.17;79.58;102346.09;5049113;28;20065;-69
2022/10/09 01:44:01;;;;;;;15.68;6.95;;;12.70;99.90;;;13.14;79.06;102341.66;5032353;28;20521;-69
2022/10/09 01:46:32;;;;;;;16.00;6.70;;;12.70;99.90;;;13.04;79.29;102347.78;5033121;28;20076;-69
2022/10/09 01:49:14;;;;;;;16.15;6.97;;;12.60;99.90;;;12.80;79.77;102318.28;5033512;28;20099;-69
2022/10/09 01:51:52;;;;;;;15.45;6.35;;;12.50;99.90;;;12.89;79.78;102366.16;5033350;28;20037;-69
2022/10/09 01:54:45;;;;;;;14.63;6.13;;;12.40;99.90;;;12.96;80.11;102330.84;5032860;28;20069;-69
2022/10/09 01:57:18;;;;;;;15.18;6.70;;;12.50;99.90;;;13.00;79.99;102337.97;5032726;28;20037;-69
2022/10/09 01:59:48;;;;;;;18.30;6.55;;;12.50;99.90;;;12.90;79.74;102298.91;5032659;28;20041;-69
2022/10/09 02:02:17;;;;;;;13.55;6.53;;;12.60;99.90;;;13.13;79.59;102331.00;5033039;28;20045;-69
2022/10/09 02:04:47;;;;;;;17.55;6.22;;;12.70;99.90;;;12.91;78.93;102268.81;5033013;28;20052;-69
2022/10/09 02:07:17;;;;;;;15.40;6.70;;;12.80;99.90;;;12.93;78.99;102274.16;5032792;28;20038;-69
2022/10/09 02:09:46;;;;;;;10.65;6.22;;;12.80;99.90;;;12.23;79.54;102200.94;5032770;28;20521;-69
2022/10/09 02:12:18;;;;;;;12.20;5.85;;;12.50;99.90;;;12.64;80.46;102289.78;5032702;28;20128;-69
2022/10/09 02:14:49;;;;;;;12.27;6.65;;;12.30;99.90;;;12.86;80.42;102323.66;5048295;28;20049;-69
2022/10/09 02:17:23;;;;;;;15.23;6.30;;;12.40;99.90;;;12.62;80.83;102304.81;5032783;28;20434;-69
2022/10/09 02:19:57;;;;;;;15.75;6.45;;;12.30;99.90;;;12.83;80.92;102317.44;5033062;28;20069;-69
2022/10/09 02:22:29;;;;;;;13.20;6.70;;;12.30;99.90;;;12.77;80.93;102315.63;5032596;28;20107;-69
2022/10/09 02:25:02;;;;;;;13.77;6.28;;;12.40;99.90;;;12.83;81.33;102309.47;5032919;28;20502;-69
2022/10/09 02:27:31;;;;;;;18.77;6.78;;;12.40;99.90;;;12.57;81.23;102259.66;5032372;28;20137;-69
2022/10/09 02:30:01;;;;;;;12.43;6.05;;;12.50;99.90;;;12.34;80.77;102189.56;5032553;28;20128;-69
2022/10/09 02:32:30;;;;;;;13.60;6.57;;;12.60;99.90;;;13.08;80.83;102309.75;5032550;28;20480;-69
2022/10/09 02:34:59;;;;;;;15.98;6.70;;;12.70;99.90;;;13.14;80.90;102303.59;5031498;28;20455;-69
2022/10/09 02:37:27;;;;;;;11.25;5.93;;;12.70;99.90;;;13.14;80.41;102306.25;5031770;28;20084;-69
2022/10/09 02:39:56;;;;;;;11.77;6.32;;;12.70;99.90;;;13.06;80.86;102306.19;5031470;28;20125;-69
2022/10/09 02:42:24;;;;;;;13.57;6.30;;;12.60;99.90;;;12.94;80.95;102298.06;5032514;28;20038;-69
2022/10/09 02:44:53;;;;;;;14.55;6.53;;;12.50;99.90;;;12.13;81.60;102172.53;5031628;28;20049;-69
2022/10/09 02:47:23;;;;;;;16.15;6.45;;;12.40;99.90;;;12.82;82.00;102294.38;5032764;28;20038;-69
2022/10/09 02:49:52;;;;;;;13.05;6.60;;;12.30;99.90;;;12.77;81.98;102265.16;5036563;28;20434;-69
2022/10/09 02:52:20;;;;;;;13.77;6.45;;;12.50;99.90;;;12.96;81.91;102303.38;5036161;28;20502;-69
2022/10/09 02:54:49;;;;;;;12.32;7.00;;;12.50;99.90;;;12.96;81.96;102298.97;5036211;28;20041;-69
2022/10/09 02:57:17;;;;;;;16.15;6.25;;;12.50;99.90;;;12.80;82.10;102269.59;5035911;28;20506;-69
2022/10/09 02:59:45;;;;;;;12.38;6.15;;;12.60;99.90;;;12.96;82.09;102301.63;5035938;28;20129;-69
2022/10/09 03:02:14;;;;;;;12.77;6.25;;;12.50;99.90;;;12.88;82.05;102287.38;5035868;28;20073;-69
2022/10/09 03:04:44;;;;;;;11.55;6.57;;;12.50;99.90;;;12.90;82.52;102293.59;5036381;28;20045;-69
2022/10/09 03:07:12;;;;;;;12.48;7.15;;;12.50;99.90;;;12.83;82.45;102278.50;5035732;28;20158;-69
2022/10/09 03:09:41;;;;;;;12.23;7.53;;;12.50;99.90;;;12.95;82.38;102297.16;5035719;28;20470;-69
2022/10/09 03:12:10;;;;;;;11.63;6.85;;;12.50;99.90;;;12.89;82.46;102294.47;5034727;28;20045;-69
2022/10/09 03:14:38;;;;;;;11.02;7.20;;;12.50;99.90;;;12.48;82.09;102219.78;5035750;28;20481;-69
2022/10/09 03:17:07;;;;;;;14.70;8.15;;;12.40;99.90;;;12.53;82.28;102239.28;5035666;28;20037;-69
2022/10/09 03:19:35;;;;;;;12.52;8.00;;;12.40;99.90;;;12.66;82.64;102282.72;5035706;28;20132;-69
2022/10/09 03:22:05;;;;;;;13.88;7.57;;;12.20;99.90;;;12.41;83.21;102239.16;5035882;28;20053;-69
2022/10/09 03:24:34;;;;;;;13.47;8.20;;;12.20;99.90;;;12.69;83.67;102282.78;5035892;28;20061;-69
2022/10/09 03:27:02;;;;;;;18.98;8.38;;;12.30;99.90;;;12.65;83.50;102283.63;5035565;28;20136;-69
2022/10/09 03:29:30;;;;;;;13.70;7.30;;;12.20;99.90;;;12.67;83.50;102281.88;5035548;28;20037;-69
2022/10/09 03:31:59;;;;;;;17.40;8.07;;;12.20;99.90;;;12.65;83.54;102275.66;5035443;28;20045;-70
2022/10/09 03:34:30;;;;;;;13.15;7.35;;;12.20;99.90;;;12.66;83.99;102267.69;5035546;28;20045;-69
2022/10/09 03:36:59;;;;;;;12.32;7.15;;;12.20;99.90;;;12.33;84.31;102226.69;5034373;28;20396;-69
2022/10/09 03:39:28;;;;;;;12.07;7.15;;;12.20;99.90;;;12.22;84.36;102221.25;5035325;28;20091;-69
2022/10/09 03:41:57;;;;;;;15.27;7.50;;;12.20;99.90;;;12.64;84.81;102280.06;5035295;28;20041;-69
2022/10/09 03:44:25;;;;;;;15.55;7.15;;;12.20;99.90;;;12.57;84.82;102270.28;5035198;28;20295;-69
2022/10/09 03:46:54;;;;;;;17.73;7.50;;;12.10;99.90;;;12.45;84.92;102248.91;5035009;28;20566;-69
2022/10/09 03:49:22;;;;;;;12.50;6.95;;;12.10;99.90;;;12.63;84.69;102304.84;5035370;28;20399;-69
2022/10/09 03:51:51;;;;;;;13.07;7.10;;;12.20;99.90;;;12.54;84.88;102274.69;5033997;28;20410;-69
2022/10/09 03:54:19;;;;;;;12.20;6.93;;;12.10;99.90;;;11.65;85.12;102160.50;5035302;28;20033;-69
2022/10/09 03:56:49;;;;;;;13.27;6.53;;;12.10;99.90;;;12.14;85.63;102253.88;5035058;28;20042;-69
2022/10/09 03:59:18;;;;;;;15.33;7.10;;;11.90;99.90;;;12.30;86.04;102277.06;5034398;28;20038;-69
2022/10/09 04:01:46;;;;;;;16.95;7.10;;;11.90;99.90;;;12.15;86.06;102266.28;5034857;28;20052;-69
2022/10/09 04:04:15;;;;;;;13.98;6.95;;;11.80;99.90;;;11.92;86.43;102251.84;5034881;28;20045;-69
2022/10/09 04:06:44;;;;;;;17.60;7.25;;;11.70;99.90;;;12.13;86.72;102302.50;5050317;28;20147;-69
2022/10/09 04:09:12;;;;;;;12.55;7.07;;;11.70;99.90;;;11.83;86.38;102209.34;5034831;28;20045;-69
2022/10/09 04:11:41;;;;;;;12.05;7.20;;;11.80;99.90;;;12.00;87.05;102269.63;5035376;28;20072;-69
2022/10/09 04:14:10;;;;;;;14.30;7.40;;;11.70;99.90;;;11.81;87.31;102249.06;5034674;28;20046;-69
2022/10/09 04:16:39;;;;;;;14.13;6.87;;;11.60;99.90;;;11.87;87.78;102280.06;5034937;28;20091;-69
2022/10/09 04:19:07;;;;;;;13.98;7.32;;;11.60;99.90;;;11.77;88.79;102276.38;5034619;28;20080;-69
2022/10/09 04:21:36;;;;;;;14.07;7.88;;;11.50;99.90;;;11.75;88.65;102270.19;5034336;28;20107;-69
2022/10/09 04:24:07;;;;;;;15.57;7.60;;;11.50;99.90;;;11.64;88.95;102259.41;5034171;28;20038;-69
2022/10/09 04:26:35;;;;;;;15.77;7.35;;;11.40;99.90;;;11.09;89.28;102184.44;5034554;28;20054;-69
2022/10/09 04:29:04;;;;;;;11.20;7.85;;;11.30;99.90;;;10.74;89.55;102166.25;5034427;28;20041;-69
2022/10/09 04:31:34;;;;;;;16.52;8.68;;;11.10;99.90;;;11.45;90.25;102261.78;5034139;28;20037;-69
2022/10/09 04:34:03;;;;;;;14.87;8.63;;;11.10;99.90;;;11.54;90.01;102265.44;5034120;28;20041;-69
2022/10/09 04:36:31;;;;;;;13.88;9.75;;;11.20;99.90;;;11.41;89.90;102246.72;5034569;28;20280;-69
2022/10/09 04:39:00;;;;;;;16.10;10.75;;;11.20;99.90;;;11.09;90.33;102237.41;5034232;28;20557;-69
2022/10/09 04:41:28;;;;;;;17.77;10.50;;;10.90;99.90;;;11.05;91.06;102277.94;5034386;28;20055;-69
2022/10/09 04:44:06;;;;;;;16.80;10.57;;;10.80;99.90;;;10.81;91.21;102193.72;5033192;28;20084;-69
2022/10/09 04:46:38;;;;;;;19.40;11.07;;;10.80;99.90;;;10.84;91.25;102244.03;5034324;28;20502;-69
2022/10/09 04:49:06;;;;;;;18.13;10.82;;;10.60;99.90;;;10.47;91.43;102164.94;5034022;28;20033;-69
2022/10/09 04:51:35;;;;;;;18.80;10.77;;;10.70;99.90;;;10.74;91.49;102258.03;5034439;28;20056;-69
2022/10/09 04:54:03;;;;;;;20.92;11.23;;;10.60;99.90;;;10.82;92.51;102243.13;5032927;28;20045;-69
2022/10/09 04:56:32;;;;;;;19.13;11.48;;;10.60;99.90;;;10.95;91.76;102258.38;5033877;28;20049;-69
2022/10/09 04:59:01;;;;;;;19.35;10.70;;;10.60;99.90;;;10.83;91.78;102237.00;5034145;28;20046;-69
2022/10/09 05:01:30;;;;;;;19.63;10.50;;;10.60;99.90;;;10.99;91.36;102262.84;5032670;28;20132;-69
2022/10/09 05:04:06;;;;;;;15.20;10.15;;;10.70;99.90;;;10.99;91.19;102273.44;5034044;28;20141;-69
2022/10/09 05:06:35;;;;;;;16.50;10.73;;;10.70;99.90;;;10.69;91.08;102214.69;5033659;28;20470;-69
2022/10/09 05:09:04;;;;;;;15.70;9.75;;;10.60;99.90;;;10.79;91.59;102249.28;5033473;28;20475;-69
2022/10/09 05:11:32;;;;;;;17.40;10.35;;;10.50;99.90;;;10.72;91.63;102249.16;5033665;28;20045;-69
2022/10/09 05:14:01;;;;;;;19.42;10.52;;;10.40;99.90;;;10.33;92.10;102204.38;5032228;28;20044;-69
2022/10/09 05:16:31;;;;;;;17.88;9.43;;;10.30;99.90;;;10.54;92.73;102255.03;5033654;28;20116;-69
2022/10/09 05:19:18;;;;;;;18.67;10.23;;;10.20;99.90;;;10.52;93.39;102242.63;5032289;28;20041;-69
2022/10/09 05:21:46;;;;;;;15.18;9.27;;;10.20;99.90;;;10.58;92.64;102245.38;5033671;28;20044;-69
2022/10/09 05:24:15;;;;;;;17.92;9.52;;;10.20;99.90;;;10.51;93.09;102246.13;5033559;28;20503;-69
2022/10/09 05:26:43;;;;;;;18.63;9.65;;;10.20;99.90;;;10.49;92.98;102245.22;5048720;28;20057;-69
2022/10/09 05:29:12;;;;;;;20.58;9.30;;;10.20;99.90;;;10.26;92.65;102193.66;5033168;28;20045;-69
2022/10/09 05:31:41;;;;;;;24.63;10.15;;;10.20;99.90;;;10.57;92.16;102247.13;5033193;28;20045;-69
2022/10/09 05:34:17;;;;;;;15.98;9.65;;;10.30;99.90;;;10.54;92.58;102251.47;5032214;28;20136;-69
2022/10/09 05:36:46;;;;;;;16.77;9.07;;;10.20;99.90;;;10.50;92.42;102247.00;5033274;28;20048;-69
2022/10/09 05:39:14;;;;;;;17.63;9.18;;;10.20;99.90;;;10.61;92.13;102253.34;5032238;28;20709;-68
2022/10/09 05:41:42;;;;;;;19.85;9.30;;;10.20;99.90;;;10.50;91.26;102224.06;5033279;28;20050;-69
2022/10/09 05:44:11;;;;;;;20.40;9.15;;;10.40;99.90;;;9.84;90.52;102099.47;5032495;28;20395;-69
2022/10/09 05:46:40;;;;;;;20.95;9.13;;;10.40;99.90;;;10.37;90.56;102194.75;5033221;28;20041;-69
2022/10/09 05:49:10;;;;;;;16.35;8.35;;;10.30;99.90;;;10.68;90.21;102248.19;5033238;28;20402;-69
2022/10/09 05:51:42;;;;;;;15.10;8.52;;;10.40;99.90;;;10.74;90.32;102231.56;5033127;28;20076;-69
2022/10/09 05:54:14;;;;;;;19.30;8.90;;;10.40;99.90;;;10.64;89.64;102243.75;5033377;28;20037;-69
2022/10/09 05:56:45;;;;;;;15.18;8.32;;;10.30;99.90;;;10.60;89.79;102231.31;5031819;28;20053;-69
2022/10/09 05:59:18;;;;;;;19.08;8.57;;;10.30;99.90;;;10.41;90.38;102212.44;5033377;28;20046;-69
2022/10/09 06:01:49;;;;;;;18.95;7.70;;;10.30;99.90;;;10.47;90.10;102208.13;5031640;28;20144;-69
2022/10/09 06:04:20;;;;;;;18.25;8.38;;;10.30;99.90;;;10.44;90.08;102213.38;5048202;28;20050;-70
2022/10/09 06:06:51;;;;;;;14.70;7.30;;;10.20;99.90;;;10.57;90.03;102235.63;5032863;28;20049;-69
2022/10/09 06:09:21;;;;;;;17.25;7.95;;;10.30;99.90;;;10.64;90.07;102245.47;5032958;28;20060;-69
2022/10/09 06:11:50;;;;;;;17.50;8.40;;;10.30;99.90;;;9.50;89.94;102135.78;5032878;28;20046;-69
2022/10/09 06:14:20;;;;;;;15.93;7.82;;;10.10;99.90;;;10.30;90.57;102200.78;5032928;28;20096;-70
2022/10/09 06:16:49;;;;;;;18.65;8.30;;;10.20;99.90;;;10.52;90.94;102237.31;5032823;28;20073;-68
2022/10/09 06:19:20;;;;;;;23.65;8.82;;;10.20;99.90;;;10.44;90.38;102209.84;5032393;28;20069;-69
2022/10/09 06:21:50;;;;;;;22.90;8.98;;;10.20;99.90;;;10.66;90.28;102225.22;5033038;28;20053;-69
2022/10/09 06:24:22;;;;;;;18.75;8.02;;;10.40;99.90;;;10.73;90.05;102237.69;5036124;28;20048;-69
2022/10/09 06:26:57;;;;;;;17.00;7.80;;;10.40;99.90;;;10.91;89.22;102275.06;5036572;28;20093;-69
2022/10/09 06:29:25;;;;;;;22.65;8.40;;;10.50;99.90;;;10.60;89.46;102239.25;5036407;28;20465;-69
2022/10/09 06:31:54;;;;;;;24.55;8.13;;;10.40;99.90;;;10.62;89.83;102245.47;5036622;28;20037;-69
2022/10/09 06:34:23;;;;;;;15.95;7.85;;;10.30;99.90;;;10.71;89.69;102244.72;5036303;28;20045;-69
2022/10/09 06:36:53;;;;;;;15.77;8.00;;;10.30;99.90;;;10.25;89.13;102137.22;5036379;28;20069;-69
2022/10/09 06:39:22;;;;;;;20.13;7.95;;;10.50;99.90;;;11.06;88.10;102248.84;5036486;28;20052;-69
2022/10/09 06:41:50;;;;;;;17.30;8.23;;;10.70;99.90;;;10.77;87.57;102198.09;5036199;28;20063;-69
2022/10/09 06:44:42;;;;;;;20.10;8.63;;;10.70;99.90;;;11.21;87.16;102249.06;5035288;28;20053;-69
2022/10/09 06:47:10;;;;;;;16.17;7.35;;;10.90;99.90;;;11.29;86.15;102220.03;5036070;28;20061;-69
2022/10/09 06:49:38;;;;;;;18.23;7.65;;;11.10;99.90;;;11.81;85.23;102264.09;5036028;28;20445;-69
2022/10/09 06:52:08;;;;;;;22.05;8.30;;;11.50;99.90;;;11.91;83.69;102247.41;5034739;28;20049;-69
2022/10/09 06:54:36;;;;;;;20.23;7.97;;;11.70;99.90;;;11.54;82.84;102201.84;5036367;28;20552;-69
2022/10/09 06:57:05;;;;;;;17.33;7.43;;;11.60;99.90;;;12.02;82.70;102253.75;5035813;28;20069;-69
2022/10/09 06:59:33;;;;;;;15.50;7.68;;;11.70;99.90;;;12.16;82.05;102250.38;5035760;28;20045;-69
2022/10/09 07:02:02;;;;;;;16.35;8.10;;;12.00;99.90;;;12.43;81.24;102240.06;5034596;28;20076;-69
2022/10/09 07:04:31;;;;;;;17.83;7.88;;;12.20;99.90;;;12.59;80.15;102244.66;5035473;28;20479;-69
2022/10/09 07:06:59;;;;;;;16.63;7.57;;;12.40;99.90;;;12.67;79.96;102257.97;5034321;28;20077;-69
2022/10/09 07:09:29;;;;;;;13.38;7.32;;;12.50;99.90;;;12.89;78.83;102254.63;5035569;28;20049;-69
2022/10/09 07:11:58;;;;;;;15.77;7.10;;;12.70;99.90;;;13.21;78.38;102260.22;5036009;28;20041;-69
2022/10/09 07:14:27;;;;;;;19.38;7.60;;;12.90;99.90;;;13.20;77.67;102256.66;5035736;28;20502;-69
2022/10/09 07:16:55;;;;;;;17.05;7.47;;;13.00;99.90;;;13.07;78.26;102216.72;5034589;28;20534;-69
2022/10/09 07:19:24;;;;;;;14.43;7.15;;;12.90;99.90;;;13.31;77.15;102223.09;5035785;28;20065;-69
2022/10/09 07:21:52;;;;;;;15.82;7.50;;;13.20;99.90;;;13.03;77.39;102225.50;5035845;28;20076;-69
2022/10/09 07:24:23;;;;;;;14.55;6.97;;;12.90;99.90;;;13.31;77.49;102215.13;5035112;28;20033;-69
2022/10/09 07:26:54;;;;;;;17.38;7.50;;;13.10;99.90;;;13.09;75.91;102153.88;5035710;28;20463;-69
2022/10/09 07:29:23;;;;;;;14.38;7.80;;;13.30;99.90;;;13.64;76.56;102264.03;5035945;28;20049;-66
2022/10/09 07:31:51;;;;;;;14.45;6.72;;;13.30;99.90;;;13.45;76.92;102260.41;5035529;28;20048;-67
2022/10/09 07:34:20;;;;;;;19.58;7.63;;;13.10;99.90;;;13.21;77.00;102234.56;5034607;28;20045;-68
2022/10/09 07:36:48;;;;;;;17.10;8.30;;;13.20;99.90;;;13.12;78.11;102231.84;5035467;28;20087;-63
2022/10/09 07:39:18;;;;;;;20.85;7.25;;;13.00;99.90;;;12.98;78.40;102156.44;5050548;28;20388;-64
2022/10/09 07:41:50;;;;;;;21.65;7.85;;;13.10;99.90;;;13.82;77.73;102259.69;5034978;28;20045;-65
2022/10/09 07:44:20;;;;;;;18.88;7.72;;;13.30;99.90;;;14.38;76.25;102266.13;5035241;28;20033;-64
2022/10/09 07:46:50;;;;;;;16.47;8.17;;;13.90;99.90;;;14.33;75.04;102257.28;5033929;28;20076;-64
2022/10/09 07:49:19;;;;;;;19.30;7.60;;;14.00;99.90;;;14.59;73.08;102262.66;5033657;28;20053;-64
2022/10/09 07:51:47;;;;;;;19.48;7.03;;;14.30;99.90;;;13.66;74.04;102098.31;5035085;28;20045;-65
2022/10/09 07:54:16;;;;;;;17.92;7.95;;;14.30;99.90;;;14.77;72.88;102267.97;5033705;28;20100;-63
2022/10/09 07:56:44;;;;;;;17.30;7.90;;;14.40;99.90;;;15.09;72.47;102254.66;5033689;28;20060;-63
2022/10/09 07:59:15;;;;;;;18.35;8.45;;;14.80;99.90;;;15.26;71.19;102264.44;5034926;28;20099;-77
2022/10/09 08:01:45;;;;;;;24.75;8.18;;;14.90;99.90;;;15.54;70.00;102264.41;5035614;28;20041;-69
2022/10/09 08:04:14;;;;;;;23.83;7.83;;;15.30;99.90;;;15.78;69.50;102264.31;5034957;28;20401;-68
2022/10/09 08:06:42;;;;;;;15.73;7.25;;;15.50;99.90;;;15.83;68.99;102263.41;5034830;28;20221;-69
2022/10/09 08:09:10;;;;;;;20.48;7.43;;;15.60;99.90;;;15.95;67.69;102259.84;5034909;28;20076;-72
2022/10/09 08:11:40;;;;;;;20.98;6.88;;;15.60;99.90;;;15.79;67.57;102226.09;5034625;28;20479;-69
2022/10/09 08:14:12;;;;;;;17.17;6.78;;;15.80;99.90;;;15.94;67.52;102252.72;5034636;28;20041;-70
2022/10/09 08:16:48;;;;;;;15.93;7.35;;;15.70;99.90;;;15.99;68.18;102330.97;5034602;28;20046;-69
2022/10/09 08:19:16;;;;;;;18.80;7.10;;;15.60;99.90;;;15.60;67.16;102270.59;5049995;28;20140;-71
2022/10/09 08:21:45;;;;;;;15.80;6.97;;;15.40;99.90;;;15.72;67.35;102272.34;5034328;28;20559;-72
2022/10/09 08:24:13;;;;;;;14.35;7.15;;;15.40;99.90;;;15.71;66.50;102246.56;5033370;28;20050;-76
2022/10/09 08:26:43;;;;;;;15.93;7.18;;;15.50;99.90;;;15.94;66.81;102258.06;5033972;28;20078;-71
2022/10/09 08:29:14;;;;;;;16.63;7.15;;;15.70;99.90;;;15.92;66.61;102223.38;5034236;28;20139;-70
2022/10/09 08:31:43;;;;;;;21.92;7.20;;;15.80;99.90;;;15.96;65.94;102251.81;5034148;28;20037;-69
2022/10/09 08:34:13;;;;;;;17.67;7.38;;;15.70;99.90;;;15.97;67.21;102250.00;5034537;28;20041;-68
2022/10/09 08:36:41;;;;;;;13.90;7.03;;;15.70;99.90;;;16.05;66.44;102242.88;5034493;28;20064;-70
2022/10/09 08:39:10;;;;;;;18.05;7.53;;;15.80;99.90;;;16.33;66.51;102252.53;5034677;28;20280;-67
2022/10/09 08:41:45;;;;;;;15.20;6.93;;;16.00;99.90;;;15.91;66.00;102143.31;5033898;28;20128;-67
2022/10/09 08:44:19;;;;;;;20.15;7.65;;;16.20;99.90;;;16.59;66.78;102247.91;5033998;28;20042;-68
2022/10/09 08:47:01;;;;;;;18.73;7.72;;;16.30;99.90;;;15.90;65.85;102126.41;5033940;28;20430;-67
2022/10/09 08:49:39;;;;;;;15.77;7.03;;;16.20;99.90;;;16.19;64.85;102161.81;5033951;28;20116;-68
2022/10/09 08:52:25;;;;;;;14.93;6.80;;;16.40;99.90;;;16.94;63.35;102250.31;5034228;28;20034;-68
2022/10/09 08:54:58;;;;;;;13.27;6.75;;;16.60;99.90;;;16.53;62.95;102237.28;5033805;28;20125;-67
2022/10/09 08:57:31;;;;;;;16.67;6.03;;;16.50;99.90;;;16.46;63.54;102245.31;5033966;28;20048;-68
2022/10/09 09:00:00;;;;;;;23.13;7.22;;;16.30;99.90;;;15.49;63.94;102095.50;5034242;28;20103;-70
2022/10/09 09:02:48;;;;;;;16.75;7.10;;;16.10;99.90;;;16.15;63.57;102239.25;5032841;28;20041;-69
2022/10/09 09:05:35;;;;;;;14.30;6.60;;;15.90;99.90;;;16.34;64.10;102251.59;5032749;28;20521;-67
2022/10/09 09:08:15;;;;;;;15.43;7.80;;;16.00;99.90;;;16.33;64.96;102236.50;5033641;28;20527;-67
2022/10/09 09:10:52;;;;;;;15.30;7.57;;;16.00;99.90;;;16.49;63.59;102240.00;5033387;28;20497;-67
2022/10/09 09:13:40;;;;;;;17.63;7.05;;;16.20;99.90;;;16.34;63.97;102248.06;5033735;28;20045;-69
2022/10/09 09:16:19;;;;;;;16.13;6.85;;;16.10;99.90;;;15.78;65.04;102227.88;5033368;28;20072;-67
2022/10/09 09:18:58;;;;;;;16.85;6.85;;;15.60;99.90;;;15.90;65.10;102264.28;5033265;28;20103;-68
2022/10/09 09:21:41;;;;;;;13.95;6.97;;;15.60;99.90;;;15.71;63.94;102211.88;5033100;28;20045;-69
2022/10/09 09:24:16;;;;;;;11.93;6.72;;;15.40;99.90;;;15.99;65.34;102217.09;5033095;28;20124;-67
2022/10/09 09:26:48;;;;;;;15.52;6.88;;;15.70;99.90;;;15.86;64.58;102218.06;5033385;28;20084;-66
2022/10/09 09:29:23;;;;;;;12.15;6.93;;;15.60;99.90;;;16.26;64.86;102221.38;5032864;28;20045;-67
2022/10/09 09:31:59;;;;;;;16.75;7.05;;;15.90;99.90;;;16.44;64.31;102221.28;5048552;28;20061;-67
2022/10/09 09:34:34;;;;;;;11.43;6.40;;;16.10;99.90;;;16.39;64.55;102236.47;5032774;28;20049;-67
2022/10/09 09:37:04;;;;;;;15.88;6.53;;;16.00;99.90;;;16.59;63.77;102205.16;5033140;28;20046;-65
2022/10/09 09:39:34;;;;;;;16.05;6.57;;;16.30;99.90;;;16.36;62.95;102192.84;5033355;28;20075;-64
2022/10/09 09:42:23;;;;;;;13.88;6.35;;;16.20;99.90;;;16.75;63.54;102198.81;5031759;28;20395;-66
2022/10/09 09:45:00;;;;;;;9.23;5.60;;;16.40;99.90;;;16.88;62.13;102203.16;5032981;28;20375;-64
2022/10/09 09:47:33;;;;;;;14.40;5.47;;;16.60;99.90;;;17.18;60.45;102201.97;5032843;28;20045;-67
2022/10/09 09:50:04;;;;;;;12.93;6.22;;;16.90;99.90;;;17.56;59.19;102212.28;5032676;28;20073;-69
2022/10/09 09:52:37;;;;;;;12.45;5.80;;;17.20;99.90;;;17.83;58.49;102198.56;5032535;28;20164;-68
2022/10/09 09:55:07;;;;;;;13.07;5.13;;;17.50;99.90;;;16.89;57.61;102011.59;5031657;28;20095;-65
2022/10/09 09:57:41;;;;;;;12.68;5.43;;;17.80;99.90;;;16.92;56.99;102076.56;5047372;28;20579;-67
2022/10/09 10:00:21;;;;;;;14.68;5.25;;;17.40;99.90;;;17.56;58.03;102186.41;5032490;28;20050;-67
2022/10/09 10:03:04;;;;;;;14.80;5.72;;;17.30;99.90;;;17.42;56.95;102190.13;5032751;28;20042;-66
2022/10/09 10:05:37;;;;;;;11.63;4.63;;;17.30;99.90;;;17.56;56.61;102180.16;5032491;28;20060;-66
2022/10/09 10:08:24;;;;;;;12.07;5.15;;;17.30;99.90;;;17.52;56.92;102173.06;5032243;28;20049;-67
2022/10/09 10:10:54;;;;;;;11.88;5.07;;;17.30;99.90;;;17.39;58.67;102168.75;5032119;28;20041;-67
2022/10/09 10:13:34;;;;;;;14.18;5.25;;;17.10;99.90;;;17.80;57.96;102170.06;5032306;28;20376;-67
2022/10/09 10:16:03;;;;;;;13.00;5.35;;;17.40;99.90;;;18.01;57.02;102160.84;5032577;28;20045;-67
2022/10/09 10:18:39;;;;;;;11.30;4.80;;;17.80;99.90;;;17.65;55.54;102167.56;5047836;28;20469;-67
2022/10/09 10:21:13;;;;;;;7.97;5.32;;;17.50;99.90;;;17.65;56.71;102185.44;5032332;28;20472;-69
2022/10/09 10:23:46;;;;;;;10.98;4.72;;;17.50;99.90;;;17.52;55.92;102167.72;5032451;28;20060;-68